Time;durP1;ratioP1;P1;durP2;ratioP2;P2;SDS_P1;SDS_P2;PMS_P1;PMS_P2;Temp;Humidity;BMP_temperature;BMP_pressure;BME280_temperature;BME280_humidity;BME280_pressure;Samples;Min_cycle;Max_cycle;Signal;HPM_P1;HPM_P2
2021/12/11 00:01:44;;;;;;;56.30;33.20;;;;;;;-4.57;86.44;98458.58;432880;1309;142845;-68
2021/12/11 00:11:57;;;;;;;53.50;34.90;;;;;;;-4.56;86.45;98471.90;431939;1312;141855;-63
2021/12/11 00:22:09;;;;;;;55.70;34.00;;;;;;;-4.57;86.28;98482.50;425989;1310;145917;-67
2021/12/11 00:32:24;;;;;;;57.90;33.50;;;;;;;-4.57;86.41;98482.16;423117;1312;142544;-67
2021/12/11 00:42:33;;;;;;;52.10;31.70;;;;;;;-4.47;86.51;98498.53;431135;1309;141279;-68
2021/12/11 00:52:42;;;;;;;62.70;35.10;;;;;;;-4.38;86.63;98507.91;435214;1310;141953;-67
2021/12/11 01:02:53;;;;;;;52.70;32.40;;;;;;;-4.26;86.76;98512.79;435146;1304;142825;-67
2021/12/11 01:13:04;;;;;;;57.60;33.40;;;;;;;-4.17;86.53;98523.04;435198;1308;142944;-66
2021/12/11 01:23:26;;;;;;;54.20;32.70;;;;;;;-4.16;86.33;98535.83;433436;1310;141648;-67
2021/12/11 01:33:33;;;;;;;55.30;33.60;;;;;;;-4.27;86.08;98543.93;432751;1312;142190;-68
2021/12/11 01:43:42;;;;;;;66.10;40.70;;;;;;;-4.30;86.24;98541.43;423070;1310;143238;-68
2021/12/11 01:53:52;;;;;;;57.60;31.20;;;;;;;-4.26;86.53;98555.85;429818;1309;142845;-68
2021/12/11 02:03:59;;;;;;;56.50;35.80;;;;;;;-4.25;86.46;98562.84;425396;1311;141919;-68
2021/12/11 02:14:07;;;;;;;59.10;36.90;;;;;;;-4.28;86.31;98575.21;428025;1312;142363;-67
2021/12/11 02:24:19;;;;;;;51.90;33.80;;;;;;;-4.31;86.09;98579.73;434599;1311;142386;-68
2021/12/11 02:34:33;;;;;;;59.10;34.60;;;;;;;-4.37;85.83;98591.95;435396;1310;142156;-68
2021/12/11 02:44:44;;;;;;;55.80;36.30;;;;;;;-4.35;85.78;98613.95;434112;1312;142077;-67
2021/12/11 02:54:58;;;;;;;58.60;38.70;;;;;;;-4.30;85.64;98634.73;435252;1312;142224;-68
2021/12/11 03:05:10;;;;;;;60.80;36.10;;;;;;;-4.21;85.57;98643.27;428656;1312;142828;-67
2021/12/11 03:15:17;;;;;;;58.90;36.70;;;;;;;-4.06;85.47;98653.06;433826;1312;143612;-67
2021/12/11 03:25:28;;;;;;;70.70;40.80;;;;;;;-3.97;85.36;98660.08;435395;1312;141621;-68
2021/12/11 03:35:35;;;;;;;62.50;38.50;;;;;;;-3.90;85.38;98672.75;429498;1307;227527;-65
2021/12/11 03:45:44;;;;;;;60.40;36.10;;;;;;;-3.86;85.42;98677.98;434425;1308;143089;-66
2021/12/11 03:55:55;;;;;;;65.90;40.60;;;;;;;-3.84;85.47;98676.73;434108;1309;141748;-66
2021/12/11 04:06:04;;;;;;;65.00;36.50;;;;;;;-3.75;85.68;98679.30;433463;1310;143798;-66
2021/12/11 04:16:12;;;;;;;71.70;35.80;;;;;;;-3.71;85.71;98690.17;433789;1310;142924;-67
2021/12/11 04:26:18;;;;;;;67.00;36.30;;;;;;;-3.69;85.91;98704.16;434212;1312;142605;-66
2021/12/11 04:36:24;;;;;;;;;;;;;;;-3.61;86.28;98715.29;431093;1310;141829;-67
2021/12/11 04:46:30;;;;;;;63.60;32.80;;;;;;;-3.65;86.42;98727.68;433505;1313;129274;-66
2021/12/11 04:56:57;;;;;;;;;;;;;;;-3.72;86.40;98722.35;421424;1310;141163;-66
2021/12/11 05:07:17;;;;;;;60.70;31.30;;;;;;;-3.75;86.56;98723.62;435700;1307;128118;-66
2021/12/11 05:17:24;;;;;;;62.40;31.50;;;;;;;-3.77;86.84;98739.55;434836;1312;144460;-68
2021/12/11 05:27:32;;;;;;;69.60;33.60;;;;;;;-3.83;86.69;98744.80;434428;1312;142029;-66
2021/12/11 05:37:39;;;;;;;65.30;30.60;;;;;;;-3.88;86.60;98750.52;433719;1312;141700;-67
2021/12/11 05:47:46;;;;;;;62.90;38.60;;;;;;;-3.96;86.45;98761.27;431783;1310;141705;-66
2021/12/11 05:57:57;;;;;;;75.10;39.20;;;;;;;-4.01;86.40;98792.15;435086;1311;141554;-66
2021/12/11 06:08:05;;;;;;;72.00;43.60;;;;;;;-4.09;86.36;98814.50;434939;1310;141885;-66
2021/12/11 06:18:17;;;;;;;76.40;37.60;;;;;;;-4.11;86.30;98827.89;434261;1312;141519;-65
2021/12/11 06:28:24;;;;;;;68.20;36.70;;;;;;;-4.22;86.32;98831.60;434755;1309;141452;-66
2021/12/11 06:38:34;;;;;;;70.20;38.30;;;;;;;-4.30;86.14;98860.98;435113;1311;142304;-66
2021/12/11 06:48:40;;;;;;;66.60;37.30;;;;;;;-4.42;86.18;98879.45;434687;1310;142179;-65
2021/12/11 06:58:51;;;;;;;69.10;36.00;;;;;;;-4.54;86.05;98888.66;434854;1311;142876;-66
2021/12/11 07:08:58;;;;;;;69.40;36.80;;;;;;;-4.49;86.28;98901.41;433302;1310;141783;-65
2021/12/11 07:19:06;;;;;;;76.10;44.70;;;;;;;-4.11;86.46;98912.32;432454;1310;143082;-66
2021/12/11 07:29:16;;;;;;;72.10;42.10;;;;;;;-3.88;85.95;98921.38;434497;1311;142047;-67
2021/12/11 07:39:24;;;;;;;70.70;37.30;;;;;;;-3.81;85.76;98932.91;432598;1311;141769;-66
2021/12/11 07:49:30;;;;;;;80.60;42.80;;;;;;;-3.65;85.51;98952.32;433602;1312;142018;-66
2021/12/11 07:59:36;;;;;;;62.60;37.80;;;;;;;-3.58;85.06;98969.83;428000;1310;141522;-65
2021/12/11 08:09:43;;;;;;;62.80;36.20;;;;;;;-3.54;84.78;98979.34;434005;1312;141996;-66
2021/12/11 08:19:49;;;;;;;65.60;35.90;;;;;;;-3.15;84.85;98993.06;434241;1312;141577;-65
2021/12/11 08:29:55;;;;;;;62.40;37.80;;;;;;;-2.98;84.29;98993.95;429764;1310;142824;-65
2021/12/11 08:40:02;;;;;;;73.50;47.30;;;;;;;-2.02;84.56;98999.40;435466;1311;141852;-66
2021/12/11 08:50:13;;;;;;;75.90;46.90;;;;;;;-0.77;83.47;99010.83;425568;1310;141551;-65
2021/12/11 09:00:25;;;;;;;64.30;43.60;;;;;;;0.12;82.51;99022.59;434078;1307;142197;-65
2021/12/11 09:10:39;;;;;;;71.00;47.10;;;;;;;0.98;80.96;99047.30;434962;1312;143865;-65
2021/12/11 09:20:53;;;;;;;80.10;51.00;;;;;;;1.12;79.82;99068.53;434186;1311;141416;-65
2021/12/11 09:31:11;;;;;;;68.30;46.00;;;;;;;0.88;79.06;99080.00;435410;1312;142327;-65
2021/12/11 09:41:19;;;;;;;77.10;48.40;;;;;;;0.57;79.07;99098.05;431945;1312;141986;-66
2021/12/11 09:51:34;;;;;;;75.40;50.20;;;;;;;0.55;79.39;99112.22;427069;1312;141687;-63
2021/12/11 10:01:44;;;;;;;72.30;47.70;;;;;;;0.49;79.23;99126.02;434794;1312;142337;-62
2021/12/11 10:11:55;;;;;;;79.10;47.80;;;;;;;0.15;78.96;99123.90;430511;1309;142502;-64
2021/12/11 10:22:09;;;;;;;80.20;52.70;;;;;;;0.11;79.74;99127.64;428028;1309;196680;-63
2021/12/11 10:32:20;;;;;;;80.20;50.70;;;;;;;0.04;79.80;99144.86;432867;1312;141547;-63
2021/12/11 10:42:26;;;;;;;81.30;52.00;;;;;;;-0.09;79.92;99145.56;434087;1312;145742;-63
2021/12/11 10:52:33;;;;;;;93.60;59.50;;;;;;;-0.07;80.26;99159.27;434144;1309;141775;-64
2021/12/11 11:02:41;;;;;;;91.90;58.40;;;;;;;-0.01;80.45;99162.05;435325;1312;142267;-65
2021/12/11 11:12:48;;;;;;;89.60;55.90;;;;;;;0.11;80.71;99164.27;434639;1312;141783;-64
2021/12/11 11:22:54;;;;;;;73.40;50.50;;;;;;;0.20;80.86;99169.56;434721;1312;142093;-64
2021/12/11 11:33:02;;;;;;;78.80;50.10;;;;;;;0.26;81.01;99188.66;431462;1312;279712;-63
2021/12/11 11:43:10;;;;;;;83.40;52.70;;;;;;;0.36;81.18;99210.77;431097;1313;142579;-64
2021/12/11 11:53:16;;;;;;;81.80;54.50;;;;;;;0.35;81.13;99220.80;434878;1313;142246;-64
2021/12/11 12:03:25;;;;;;;76.80;50.00;;;;;;;0.21;81.25;99220.30;433487;1312;141905;-64
2021/12/11 12:13:32;;;;;;;68.10;44.60;;;;;;;0.19;81.25;99226.05;434122;1316;141643;-65
2021/12/11 12:23:57;;;;;;;53.70;36.50;;;;;;;0.22;81.62;99234.05;430368;1313;141932;-65
2021/12/11 12:34:07;;;;;;;42.20;26.70;;;;;;;0.19;81.45;99253.09;434065;1313;142508;-64
2021/12/11 12:44:18;;;;;;;47.00;31.80;;;;;;;0.21;81.32;99262.31;435472;1312;141461;-65
2021/12/11 12:54:36;;;;;;;68.40;47.10;;;;;;;0.23;81.40;99274.48;433388;1315;142933;-65
2021/12/11 13:04:45;;;;;;;55.60;41.30;;;;;;;0.15;81.59;99280.37;435301;1312;141235;-65
2021/12/11 13:14:53;;;;;;;49.50;33.70;;;;;;;0.05;81.46;99289.23;427956;1312;141284;-62
2021/12/11 13:25:04;;;;;;;44.70;30.10;;;;;;;-0.07;81.39;99296.60;434980;1312;141800;-64
2021/12/11 13:35:15;;;;;;;48.60;35.00;;;;;;;-0.22;81.10;99303.85;434530;1313;141419;-63
2021/12/11 13:45:29;;;;;;;50.90;34.00;;;;;;;-0.44;81.04;99311.41;430044;1312;142017;-65
2021/12/11 13:55:37;;;;;;;52.80;34.70;;;;;;;-0.67;81.14;99322.77;434690;1312;142679;-63
2021/12/11 14:05:44;;;;;;;52.20;35.60;;;;;;;-0.95;81.43;99336.23;434763;1312;142500;-63
2021/12/11 14:15:52;;;;;;;62.30;40.30;;;;;;;-1.32;81.41;99341.80;432509;1312;141721;-63
2021/12/11 14:25:59;;;;;;;75.40;48.10;;;;;;;-1.70;81.51;99348.50;431089;1312;142005;-64
2021/12/11 14:36:09;;;;;;;65.80;45.70;;;;;;;-2.10;81.74;99356.52;433441;1312;142449;-64
2021/12/11 14:46:16;;;;;;;89.70;56.30;;;;;;;-2.44;82.12;99382.75;422500;1312;141642;-63
2021/12/11 14:56:27;;;;;;;115.00;69.80;;;;;;;-2.65;82.65;99390.58;435141;1307;142085;-64
2021/12/11 15:06:34;;;;;;;130.90;85.80;;;;;;;-2.62;83.19;99403.21;433076;1313;142738;-64
2021/12/11 15:16:41;;;;;;;145.00;93.00;;;;;;;-2.39;83.59;99418.68;434982;1310;142032;-64
2021/12/11 15:26:48;;;;;;;173.40;116.50;;;;;;;-2.16;83.83;99439.48;430319;1312;145271;-65
2021/12/11 15:36:56;;;;;;;169.70;105.90;;;;;;;-1.95;84.08;99448.95;433274;1312;144446;-66
2021/12/11 15:47:03;;;;;;;181.10;118.90;;;;;;;-1.89;83.95;99468.59;432824;1311;142131;-67
2021/12/11 15:57:12;;;;;;;162.70;106.50;;;;;;;-1.86;84.08;99488.61;423063;1312;142162;-67
2021/12/11 16:07:18;;;;;;;162.60;108.00;;;;;;;-1.86;83.94;99508.19;435150;1311;143193;-67
2021/12/11 16:17:24;;;;;;;171.00;112.90;;;;;;;-1.83;84.05;99518.09;432852;1310;143244;-67
2021/12/11 16:27:31;;;;;;;156.90;111.80;;;;;;;-1.74;83.98;99526.36;430339;1310;142152;-67
2021/12/11 16:37:39;;;;;;;174.40;114.20;;;;;;;-1.68;83.88;99532.46;426992;1310;141745;-67
2021/12/11 16:47:45;;;;;;;180.30;117.10;;;;;;;-1.63;83.88;99551.42;434911;1312;142354;-68
2021/12/11 16:57:52;;;;;;;171.40;112.10;;;;;;;-1.65;83.68;99573.95;433734;1312;142749;-68
2021/12/11 17:07:58;;;;;;;205.50;124.40;;;;;;;-1.71;83.73;99585.72;433561;1308;154925;-67
2021/12/11 17:18:06;;;;;;;169.60;111.10;;;;;;;-1.69;83.81;99595.30;431809;1311;143873;-66
2021/12/11 17:28:18;;;;;;;167.30;112.70;;;;;;;-1.70;83.86;99599.42;433666;1312;141949;-67
2021/12/11 17:38:26;;;;;;;164.30;108.90;;;;;;;-1.74;83.86;99612.17;435219;1312;142591;-68
2021/12/11 17:48:32;;;;;;;169.40;112.30;;;;;;;-1.75;83.88;99630.22;431758;1313;141927;-69
2021/12/11 17:58:41;;;;;;;171.30;113.40;;;;;;;-1.72;83.76;99642.88;431576;1307;141707;-70
2021/12/11 18:08:49;;;;;;;173.60;115.30;;;;;;;-1.73;83.58;99651.81;433442;1312;141764;-70
2021/12/11 18:18:58;;;;;;;182.10;111.20;;;;;;;-1.73;84.04;99659.55;434977;1309;143003;-70
2021/12/11 18:29:12;;;;;;;164.20;103.20;;;;;;;-1.69;83.93;99661.89;434902;1312;143576;-70
2021/12/11 18:39:26;;;;;;;111.50;73.50;;;;;;;-1.78;83.92;99653.77;434245;1311;143286;-69
2021/12/11 18:49:33;;;;;;;118.60;79.80;;;;;;;-1.94;83.79;99661.34;434331;1308;143211;-70
2021/12/11 18:59:41;;;;;;;110.00;70.40;;;;;;;-2.05;84.02;99682.73;435051;1310;141845;-69
2021/12/11 19:09:48;;;;;;;121.20;72.00;;;;;;;-2.18;84.21;99694.88;424650;1312;184653;-70
2021/12/11 19:19:54;;;;;;;111.70;69.40;;;;;;;-2.19;84.35;99705.70;430410;1312;143415;-69
2021/12/11 19:30:10;;;;;;;114.90;72.00;;;;;;;-2.18;84.33;99724.05;427672;1307;250563;-69
2021/12/11 19:40:19;;;;;;;103.90;69.30;;;;;;;-2.16;84.34;99740.48;431456;1312;142941;-69
2021/12/11 19:50:26;;;;;;;107.10;66.60;;;;;;;-2.20;84.39;99765.91;434925;1311;144346;-69
2021/12/11 20:00:41;;;;;;;110.90;68.60;;;;;;;-2.14;84.56;99770.98;430214;1311;142538;-68
2021/12/11 20:10:51;;;;;;;106.30;67.90;;;;;;;-2.15;84.50;99789.52;434418;1312;142112;-68
2021/12/11 20:21:01;;;;;;;104.60;66.80;;;;;;;-2.15;84.54;99802.05;428049;1312;141985;-68
2021/12/11 20:31:12;;;;;;;88.70;62.50;;;;;;;-2.11;84.72;99811.63;435161;1311;142535;-65
2021/12/11 20:41:36;;;;;;;101.90;61.30;;;;;;;-2.10;84.71;99816.59;435388;1307;142523;-66
2021/12/11 20:51:46;;;;;;;108.80;64.60;;;;;;;-2.03;84.45;99836.77;433295;1307;141876;-65
2021/12/11 21:01:55;;;;;;;99.70;60.60;;;;;;;-1.99;84.40;99844.11;435364;1310;142535;-66
2021/12/11 21:12:08;;;;;;;98.70;64.10;;;;;;;-1.99;84.42;99859.56;434623;1310;142197;-66
2021/12/11 21:22:20;;;;;;;98.20;62.00;;;;;;;-2.03;84.31;99878.83;435266;1310;142162;-66
2021/12/11 21:32:30;;;;;;;104.50;65.60;;;;;;;-2.10;84.43;99898.59;433372;1310;141277;-66
2021/12/11 21:42:39;;;;;;;101.40;65.40;;;;;;;-2.07;84.61;99912.63;434600;1311;143191;-65
2021/12/11 21:52:46;;;;;;;104.10;63.80;;;;;;;-2.04;84.38;99920.00;430174;1312;141728;-66
2021/12/11 22:02:58;;;;;;;107.50;70.30;;;;;;;-2.07;84.48;99935.46;431144;1312;196862;-65
2021/12/11 22:13:05;;;;;;;101.30;66.20;;;;;;;-2.09;84.52;99946.96;431100;1310;143315;-66
2021/12/11 22:23:11;;;;;;;107.40;70.90;;;;;;;-2.05;84.67;99950.55;423038;1312;142262;-65
2021/12/11 22:33:20;;;;;;;102.00;68.60;;;;;;;-2.13;84.54;99955.73;434589;1312;142779;-65
2021/12/11 22:43:31;;;;;;;90.60;62.10;;;;;;;-2.10;84.56;99960.35;425010;1307;142527;-65
2021/12/11 22:53:41;;;;;;;107.70;66.00;;;;;;;-2.07;84.56;99977.33;426701;1311;142268;-66
2021/12/11 23:03:50;;;;;;;109.10;69.40;;;;;;;-2.06;84.47;99981.43;434600;1312;143043;-66
2021/12/11 23:14:02;;;;;;;108.10;70.90;;;;;;;-2.05;84.39;99998.07;428925;1309;142224;-65
2021/12/11 23:24:13;;;;;;;107.40;70.10;;;;;;;-2.03;84.49;100008.00;425747;1311;141820;-66
2021/12/11 23:34:22;;;;;;;111.30;70.30;;;;;;;-2.06;84.41;100018.15;433849;1312;142238;-66
2021/12/11 23:44:33;;;;;;;108.30;70.10;;;;;;;-2.00;84.59;100023.60;433511;1312;143268;-66
2021/12/11 23:54:43;;;;;;;112.20;70.10;;;;;;;-2.02;84.42;100025.15;431832;1312;143679;-66
